Time;durP1;ratioP1;P1;durP2;ratioP2;P2;SDS_P1;SDS_P2;PMS_P1;PMS_P2;Temp;Humidity;BMP_temperature;BMP_pressure;BME280_temperature;BME280_humidity;BME280_pressure;Samples;Min_cycle;Max_cycle;Signal;HPM_P1;HPM_P2
2023/10/09 00:01:12;;;;;;;30.42;4.30;;;;;;;;;;5024739;28;20049;-59
2023/10/09 00:03:50;;;;;;;51.25;8.30;;;;;;;;;;5023406;28;20060;-59
2023/10/09 00:06:16;;;;;;;39.42;6.28;;;;;;;;;;5023168;28;20056;-59
2023/10/09 00:08:50;;;;;;;39.92;6.78;;;;;;;;;;5025252;28;20053;-59
2023/10/09 00:11:16;;;;;;;35.40;4.35;;;;;;;;;;5023386;28;20041;-59
2023/10/09 00:13:51;;;;;;;30.83;5.32;;;;;;;;;;5024747;28;20040;-59
2023/10/09 00:16:36;;;;;;;38.65;5.82;;;;;;;;;;5021261;28;20033;-59
2023/10/09 00:19:14;;;;;;;41.22;5.72;;;;;;;;;;5024492;28;20034;-59
2023/10/09 00:21:44;;;;;;;24.40;5.32;;;;;;;;;;5019970;28;20543;-59
2023/10/09 00:24:14;;;;;;;33.15;5.35;;;;;;;;;;5015987;28;20060;-59
2023/10/09 00:26:45;;;;;;;38.10;6.15;;;;;;;;;;5022261;28;20042;-59
2023/10/09 00:29:21;;;;;;;31.23;5.65;;;;;;;;;;5024533;28;20499;-58
2023/10/09 00:32:13;;;;;;;29.35;4.68;;;;;;;;;;5022735;28;20041;-58
2023/10/09 00:34:39;;;;;;;43.08;7.22;;;;;;;;;;5023360;28;20030;-58
2023/10/09 00:37:10;;;;;;;37.92;5.05;;;;;;;;;;5023565;28;20048;-57
2023/10/09 00:42:12;;;;;;;36.22;4.70;;;;;;;;;;5022831;28;20061;-59
2023/10/09 00:44:41;;;;;;;39.35;5.43;;;;;;;;;;5021257;28;20034;-58
2023/10/09 00:47:20;;;;;;;37.60;5.82;;;;;;;;;;5028579;28;20058;-59
2023/10/09 00:50:03;;;;;;;26.58;5.13;;;;;;;;;;5026925;28;20034;-59
2023/10/09 00:52:43;;;;;;;34.92;4.65;;;;;;;;;;5008090;28;20046;-58
2023/10/09 00:55:14;;;;;;;36.15;5.22;;;;;;;;;;5023551;28;20037;-58
2023/10/09 00:57:50;;;;;;;33.45;5.45;;;;;;;;;;5029041;28;20041;-58
2023/10/09 01:00:32;;;;;;;34.50;4.95;;;;;;;;;;5024825;28;20052;-58
2023/10/09 01:03:19;;;;;;;36.85;5.18;;;;;;;;;;5023729;28;20053;-58
2023/10/09 01:11:14;;;;;;;30.38;5.15;;;;;;;;;;5028550;28;20029;-58
2023/10/09 01:16:18;;;;;;;42.03;6.10;;;;;;;;;;5025567;28;20030;-58
2023/10/09 01:18:46;;;;;;;38.25;5.85;;;;;;;;;;5022742;28;20041;-58
2023/10/09 01:21:14;;;;;;;43.50;5.40;;;;;;;;;;5025616;28;20052;-58
2023/10/09 01:24:03;;;;;;;37.33;5.22;;;;;;;;;;5024988;28;20037;-58
2023/10/09 01:26:46;;;;;;;30.38;4.95;;;;;;;;;;5028529;28;20036;-58
2023/10/09 01:29:27;;;;;;;32.00;5.13;;;;;;;;;;5031319;28;20538;-58
2023/10/09 01:31:55;;;;;;;31.75;5.28;;;;;;;;;;5027216;28;20029;-58
2023/10/09 01:34:25;;;;;;;29.05;5.28;;;;;;;;;;5008543;28;20033;-58
2023/10/09 01:36:55;;;;;;;28.00;4.88;;;;;;;;;;5028300;28;20037;-58
2023/10/09 01:39:30;;;;;;;26.25;4.75;;;;;;;;;;5028794;28;20041;-58
2023/10/09 01:42:05;;;;;;;25.67;5.53;;;;;;;;;;5027068;28;20045;-58
2023/10/09 01:44:35;;;;;;;25.15;3.90;;;;;;;;;;5027349;28;20034;-58
2023/10/09 01:47:07;;;;;;;22.65;4.50;;;;;;;;;;5028165;28;20045;-59
2023/10/09 01:49:41;;;;;;;28.77;5.75;;;;;;;;;;5025716;28;20050;-58
2023/10/09 01:52:09;;;;;;;34.83;4.72;;;;;;;;;;5027767;28;20049;-58
2023/10/09 01:54:37;;;;;;;24.75;4.25;;;;;;;;;;5026503;28;20037;-58
2023/10/09 01:57:13;;;;;;;29.60;4.50;;;;;;;;;;5027955;28;20029;-58
2023/10/09 01:59:44;;;;;;;27.02;5.93;;;;;;;;;;5023039;28;20041;-58
2023/10/09 02:02:33;;;;;;;32.05;5.20;;;;;;;;;;5023789;28;20045;-58
2023/10/09 02:07:40;;;;;;;24.40;4.38;;;;;;;;;;5023532;28;20041;-59
2023/10/09 02:10:21;;;;;;;25.95;4.80;;;;;;;;;;5026608;28;20044;-59
2023/10/09 02:13:10;;;;;;;28.00;4.80;;;;;;;;;;5028274;28;20033;-59
2023/10/09 02:20:55;;;;;;;33.05;4.75;;;;;;;;;;5021943;28;20045;-58
2023/10/09 02:23:26;;;;;;;26.90;4.68;;;;;;;;;;5021166;28;20041;-58
2023/10/09 02:26:01;;;;;;;26.27;4.22;;;;;;;;;;5023668;28;20033;-58
2023/10/09 02:28:32;;;;;;;28.50;4.05;;;;;;;;;;5029175;28;20056;-59
2023/10/09 02:31:01;;;;;;;25.00;4.97;;;;;;;;;;5026652;28;20033;-58
2023/10/09 02:33:28;;;;;;;28.83;4.38;;;;;;;;;;5027440;28;20037;-58
2023/10/09 02:35:55;;;;;;;31.33;5.00;;;;;;;;;;5026371;28;20032;-58
2023/10/09 02:38:23;;;;;;;23.73;4.63;;;;;;;;;;5027036;28;20420;-59
2023/10/09 02:43:50;;;;;;;26.95;4.75;;;;;;;;;;5026461;28;20041;-58
2023/10/09 02:46:19;;;;;;;24.60;4.60;;;;;;;;;;5028615;28;20048;-59
2023/10/09 02:48:52;;;;;;;26.23;6.25;;;;;;;;;;5026941;28;20060;-58
2023/10/09 02:51:52;;;;;;;29.73;5.32;;;;;;;;;;5007624;28;20053;-58
2023/10/09 02:54:18;;;;;;;24.70;4.78;;;;;;;;;;5020442;28;20041;-57
2023/10/09 02:56:54;;;;;;;26.95;5.13;;;;;;;;;;5024529;28;20410;-58
2023/10/09 02:59:21;;;;;;;16.27;4.75;;;;;;;;;;5021812;28;20041;-59
2023/10/09 03:01:48;;;;;;;29.00;6.75;;;;;;;;;;5020840;28;20038;-58
2023/10/09 03:04:15;;;;;;;19.38;4.93;;;;;;;;;;5010600;28;20053;-59
2023/10/09 03:06:51;;;;;;;20.60;5.35;;;;;;;;;;5025738;28;20040;-59
2023/10/09 03:09:18;;;;;;;23.42;5.15;;;;;;;;;;5024162;28;20064;-59
2023/10/09 03:11:53;;;;;;;24.85;5.72;;;;;;;;;;5022668;28;20060;-59
2023/10/09 03:14:26;;;;;;;20.65;5.18;;;;;;;;;;5020889;28;20386;-59
2023/10/09 03:16:53;;;;;;;19.50;4.63;;;;;;;;;;5023166;28;20505;-59
2023/10/09 03:19:19;;;;;;;25.40;4.63;;;;;;;;;;5023928;28;20071;-59
2023/10/09 03:21:46;;;;;;;22.73;3.80;;;;;;;;;;5026098;28;20057;-59
2023/10/09 03:24:12;;;;;;;19.98;6.15;;;;;;;;;;5023346;28;20050;-58
2023/10/09 03:26:38;;;;;;;21.80;4.80;;;;;;;;;;5024782;28;20052;-58
2023/10/09 03:29:06;;;;;;;23.13;4.38;;;;;;;;;;5027317;28;20056;-59
2023/10/09 03:31:33;;;;;;;19.88;5.47;;;;;;;;;;5026029;28;20504;-59
2023/10/09 03:34:00;;;;;;;20.35;4.60;;;;;;;;;;5024206;28;20030;-58
2023/10/09 03:36:26;;;;;;;20.45;4.75;;;;;;;;;;5027194;28;20048;-58
2023/10/09 03:38:57;;;;;;;18.25;4.00;;;;;;;;;;5028748;28;20120;-58
2023/10/09 03:41:28;;;;;;;19.35;4.60;;;;;;;;;;5025435;28;20029;-58
2023/10/09 03:43:55;;;;;;;22.73;3.80;;;;;;;;;;5025604;28;20052;-59
2023/10/09 03:46:22;;;;;;;21.45;4.38;;;;;;;;;;5026620;28;20026;-58
2023/10/09 03:48:49;;;;;;;19.92;3.85;;;;;;;;;;5026484;28;20057;-59
2023/10/09 03:51:21;;;;;;;16.50;3.85;;;;;;;;;;5026517;28;20405;-58
2023/10/09 03:53:48;;;;;;;15.77;3.90;;;;;;;;;;5020438;28;20050;-57
2023/10/09 03:56:18;;;;;;;19.70;3.78;;;;;;;;;;5025630;28;20071;-58
2023/10/09 03:58:46;;;;;;;21.38;4.35;;;;;;;;;;5028264;28;20409;-58
2023/10/09 04:03:55;;;;;;;18.58;3.92;;;;;;;;;;5024097;28;20033;-58
2023/10/09 04:06:30;;;;;;;22.48;4.53;;;;;;;;;;5023292;28;20490;-57
2023/10/09 04:08:58;;;;;;;14.00;3.50;;;;;;;;;;5029035;28;20045;-58
2023/10/09 04:11:25;;;;;;;18.98;3.92;;;;;;;;;;5025689;28;20041;-58
2023/10/09 04:13:59;;;;;;;23.05;4.10;;;;;;;;;;5026281;28;20048;-59
2023/10/09 04:18:59;;;;;;;15.98;3.53;;;;;;;;;;5020782;28;20033;-58
2023/10/09 04:21:36;;;;;;;16.58;3.13;;;;;;;;;;5020570;28;20033;-58
2023/10/09 04:24:22;;;;;;;;;;;;;;;;;;;;;
2023/10/09 04:26:37;;;;;;;16.58;3.03;;;;;;;;;;5028110;28;20052;-58
2023/10/09 04:29:03;;;;;;;12.18;2.78;;;;;;;;;;5025142;28;20082;-58
2023/10/09 04:31:37;;;;;;;16.95;2.70;;;;;;;;;;5027101;28;20030;-58
2023/10/09 04:39:46;;;;;;;15.70;3.20;;;;;;;;;;5017583;28;20037;-58
2023/10/09 04:42:36;;;;;;;18.27;3.72;;;;;;;;;;5023256;28;20034;-57
2023/10/09 04:47:35;;;;;;;16.55;2.75;;;;;;;;;;5025411;28;20041;-58
2023/10/09 05:00:35;;;;;;;10.27;2.67;;;;;;;;;;5019410;28;20045;-58
2023/10/09 05:05:48;;;;;;;10.93;3.08;;;;;;;;;;5025495;28;20037;-58
2023/10/09 05:08:28;;;;;;;14.00;2.50;;;;;;;;;;5024563;28;20037;-59
2023/10/09 05:13:57;;;;;;;11.32;2.90;;;;;;;;;;5020173;28;20040;-58
2023/10/09 05:16:26;;;;;;;10.25;2.60;;;;;;;;;;5017508;28;20049;-59
2023/10/09 05:18:56;;;;;;;;;;;;;;;;;;5020374;28;20038;-58
2023/10/09 05:29:19;;;;;;;22.63;4.47;;;;;;;;;;5019386;28;20045;-59
2023/10/09 05:31:57;;;;;;;15.90;3.15;;;;;;;;;;5025337;28;20056;-59
2023/10/09 05:34:33;;;;;;;11.85;2.92;;;;;;;;;;5027197;28;20042;-59
2023/10/09 05:44:55;;;;;;;23.02;4.07;;;;;;;;;;5023891;28;20052;-58
2023/10/09 06:04:49;;;;;;;20.33;4.30;;;;;;;;;;5023687;28;20433;-59
2023/10/09 06:07:22;;;;;;;19.00;3.50;;;;;;;;;;5021466;28;20044;-59
2023/10/09 06:09:55;;;;;;;18.13;3.10;;;;;;;;;;4992180;28;20424;-59
2023/10/09 06:12:49;;;;;;;14.05;3.65;;;;;;;;;;5028141;28;20056;-59
2023/10/09 06:15:31;;;;;;;17.83;3.65;;;;;;;;;;5027285;28;20038;-58
2023/10/09 06:18:25;;;;;;;21.15;4.07;;;;;;;;;;5023432;28;20029;-58
2023/10/09 06:26:24;;;;;;;15.48;3.40;;;;;;;;;;5022278;28;20041;-59
2023/10/09 06:29:13;;;;;;;23.40;3.65;;;;;;;;;;5025902;28;20042;-59
2023/10/09 06:32:38;;;;;;;19.85;4.10;;;;;;;;;;5026218;28;20053;-59
2023/10/09 06:34:35;;;;;;;24.05;7.45;;;;;;;;;;5027579;28;20056;-59
2023/10/09 06:37:17;;;;;;;16.70;4.63;;;;;;;;;;5027294;28;20396;-58
2023/10/09 06:39:50;;;;;;;19.60;3.53;;;;;;;;;;5027103;28;20045;-60
2023/10/09 06:47:41;;;;;;;16.95;2.75;;;;;;;;;;5023963;28;20042;-59
2023/10/09 06:56:01;;;;;;;16.00;3.17;;;;;;;;;;5025050;28;20052;-59
2023/10/09 06:58:27;;;;;;;16.25;3.17;;;;;;;;;;5022141;28;20038;-59
2023/10/09 07:03:29;;;;;;;19.75;5.10;;;;;;;;;;5027216;28;20053;-60
2023/10/09 07:06:23;;;;;;;14.25;2.38;;;;;;;;;;5026826;28;20033;-60
2023/10/09 07:17:44;;;;;;;18.13;2.70;;;;;;;;;;5019249;28;20045;-58
2023/10/09 07:20:36;;;;;;;22.10;2.83;;;;;;;;;;5027747;28;20056;-59
2023/10/09 07:23:13;;;;;;;17.77;2.83;;;;;;;;;;5025975;28;20041;-59
2023/10/09 07:25:54;;;;;;;20.98;2.97;;;;;;;;;;5024526;28;20048;-59
2023/10/09 07:28:42;;;;;;;14.45;2.55;;;;;;;;;;5020986;28;20033;-59
2023/10/09 07:31:23;;;;;;;14.68;2.58;;;;;;;;;;5026426;28;20041;-59
2023/10/09 07:33:57;;;;;;;17.60;2.55;;;;;;;;;;5024783;28;20081;-59
2023/10/09 07:36:34;;;;;;;19.27;3.00;;;;;;;;;;5020934;28;20037;-59
2023/10/09 07:39:02;;;;;;;17.15;2.75;;;;;;;;;;5025171;28;20033;-58
2023/10/09 07:44:13;;;;;;;11.93;2.60;;;;;;;;;;5025185;28;20037;-58
2023/10/09 07:47:13;;;;;;;18.50;3.15;;;;;;;;;;5025685;28;20042;-59
2023/10/09 07:49:40;;;;;;;23.70;2.97;;;;;;;;;;5022357;28;20048;-59
2023/10/09 07:52:06;;;;;;;21.17;2.63;;;;;;;;;;5025966;28;20073;-59
2023/10/09 07:54:32;;;;;;;10.40;2.78;;;;;;;;;;5021030;28;20040;-58
2023/10/09 07:57:08;;;;;;;15.70;3.10;;;;;;;;;;5024596;28;20417;-59
2023/10/09 07:59:41;;;;;;;18.48;2.80;;;;;;;;;;5023858;28;20050;-59
2023/10/09 08:02:13;;;;;;;20.33;3.30;;;;;;;;;;5021422;28;20041;-59
2023/10/09 08:04:49;;;;;;;18.77;2.70;;;;;;;;;;5026137;28;20049;-58
2023/10/09 08:07:19;;;;;;;18.60;2.72;;;;;;;;;;5018853;28;20036;-59
2023/10/09 08:09:46;;;;;;;17.88;2.78;;;;;;;;;;5019466;28;20037;-59
2023/10/09 08:15:20;;;;;;;17.80;3.17;;;;;;;;;;5018885;28;20040;-59
2023/10/09 08:17:50;;;;;;;13.50;2.95;;;;;;;;;;5015349;28;20033;-59
2023/10/09 08:20:17;;;;;;;17.40;3.38;;;;;;;;;;5026045;28;20037;-59
2023/10/09 08:22:50;;;;;;;16.23;3.08;;;;;;;;;;5026205;28;20042;-59
2023/10/09 08:25:50;;;;;;;15.25;3.00;;;;;;;;;;5025854;28;20040;-58
2023/10/09 08:31:34;;;;;;;13.93;2.90;;;;;;;;;;5022564;28;20401;-59
2023/10/09 08:34:01;;;;;;;11.60;2.40;;;;;;;;;;5025189;28;20041;-60
2023/10/09 08:36:28;;;;;;;16.17;2.80;;;;;;;;;;5023535;28;20045;-59
2023/10/09 08:38:58;;;;;;;17.52;3.65;;;;;;;;;;5024566;28;20578;-58
2023/10/09 08:41:29;;;;;;;18.67;2.58;;;;;;;;;;5022927;28;20045;-59
2023/10/09 08:43:57;;;;;;;18.25;2.92;;;;;;;;;;5024763;28;20041;-60
2023/10/09 08:46:28;;;;;;;17.17;2.85;;;;;;;;;;5024624;28;20629;-58
2023/10/09 08:48:58;;;;;;;17.77;2.85;;;;;;;;;;5024084;28;20114;-60
2023/10/09 08:51:26;;;;;;;17.35;2.92;;;;;;;;;;5025101;28;20061;-58
2023/10/09 08:53:53;;;;;;;17.05;3.08;;;;;;;;;;5021401;28;20040;-58
2023/10/09 08:56:23;;;;;;;15.57;2.63;;;;;;;;;;5020838;28;20063;-59
2023/10/09 08:58:59;;;;;;;17.13;2.75;;;;;;;;;;5018151;28;20042;-60
2023/10/09 09:01:25;;;;;;;18.58;3.10;;;;;;;;;;5025680;28;20473;-58
2023/10/09 09:03:55;;;;;;;13.25;2.67;;;;;;;;;;5021065;28;20531;-58
2023/10/09 09:06:23;;;;;;;21.15;3.47;;;;;;;;;;5018379;28;20057;-59
2023/10/09 09:08:54;;;;;;;18.98;3.03;;;;;;;;;;5021539;28;20065;-59
2023/10/09 09:11:24;;;;;;;11.60;2.65;;;;;;;;;;5024988;28;20068;-59
2023/10/09 09:13:53;;;;;;;16.70;3.10;;;;;;;;;;5021666;28;20045;-60
2023/10/09 09:16:21;;;;;;;19.98;3.20;;;;;;;;;;5026379;28;20481;-58
2023/10/09 09:19:00;;;;;;;18.55;3.08;;;;;;;;;;5025786;28;20385;-59
2023/10/09 09:21:37;;;;;;;15.40;2.55;;;;;;;;;;5027796;28;20041;-59
2023/10/09 09:24:16;;;;;;;17.15;2.63;;;;;;;;;;5026862;28;20029;-59
2023/10/09 09:26:46;;;;;;;16.90;3.25;;;;;;;;;;5029802;28;20052;-59
2023/10/09 09:29:13;;;;;;;18.02;3.33;;;;;;;;;;5030511;28;20053;-58
2023/10/09 09:32:06;;;;;;;16.10;3.38;;;;;;;;;;5026266;28;20088;-58
2023/10/09 09:34:44;;;;;;;17.67;3.40;;;;;;;;;;5030446;28;20041;-58
2023/10/09 09:37:20;;;;;;;14.75;3.00;;;;;;;;;;5031000;28;20034;-59
2023/10/09 09:39:49;;;;;;;19.30;3.03;;;;;;;;;;5027173;28;20036;-59
2023/10/09 09:42:25;;;;;;;25.92;3.45;;;;;;;;;;5027736;28;20420;-60
2023/10/09 09:44:52;;;;;;;15.30;2.80;;;;;;;;;;5028211;28;20053;-60
2023/10/09 09:47:26;;;;;;;15.30;2.80;;;;;;;;;;5025231;28;20681;-60
2023/10/09 09:49:59;;;;;;;17.38;2.70;;;;;;;;;;5023032;28;20061;-60
2023/10/09 09:52:37;;;;;;;16.40;2.55;;;;;;;;;;5027937;28;20046;-59
2023/10/09 09:55:17;;;;;;;27.13;3.20;;;;;;;;;;5025456;28;20504;-59
2023/10/09 09:57:51;;;;;;;15.57;2.97;;;;;;;;;;5025072;28;20064;-59
2023/10/09 10:03:26;;;;;;;17.42;2.80;;;;;;;;;;5026140;28;20528;-60
2023/10/09 10:05:58;;;;;;;18.13;3.78;;;;;;;;;;5025569;28;20033;-60
2023/10/09 10:08:33;;;;;;;21.60;4.40;;;;;;;;;;5019851;28;20056;-60
2023/10/09 10:11:05;;;;;;;19.33;4.10;;;;;;;;;;5022873;28;20413;-60
2023/10/09 10:13:40;;;;;;;20.77;2.95;;;;;;;;;;5018847;28;20045;-60
2023/10/09 10:16:13;;;;;;;20.98;3.42;;;;;;;;;;5028938;28;20044;-59
2023/10/09 10:19:07;;;;;;;23.10;3.38;;;;;;;;;;5030845;28;20052;-59
2023/10/09 10:21:39;;;;;;;21.92;3.60;;;;;;;;;;5029546;28;20053;-59
2023/10/09 10:24:28;;;;;;;25.75;3.40;;;;;;;;;;5030530;28;20604;-58
2023/10/09 10:27:09;;;;;;;17.02;3.80;;;;;;;;;;5025696;28;20501;-59
2023/10/09 10:29:38;;;;;;;19.73;3.33;;;;;;;;;;5028281;28;20040;-59
2023/10/09 10:32:08;;;;;;;24.97;3.13;;;;;;;;;;5026904;28;20037;-59
2023/10/09 10:34:55;;;;;;;18.70;3.30;;;;;;;;;;5026841;28;20288;-59
2023/10/09 10:37:38;;;;;;;20.38;4.10;;;;;;;;;;5020535;28;20104;-59
2023/10/09 10:40:15;;;;;;;27.08;3.75;;;;;;;;;;5029040;28;20048;-59
2023/10/09 10:43:09;;;;;;;24.67;4.00;;;;;;;;;;5022842;28;20033;-59
2023/10/09 10:45:35;;;;;;;26.83;4.38;;;;;;;;;;5022341;28;20111;-59
2023/10/09 10:48:08;;;;;;;28.40;4.25;;;;;;;;;;5029241;28;20034;-59
2023/10/09 10:50:35;;;;;;;22.20;3.65;;;;;;;;;;5026120;28;20044;-59
2023/10/09 10:53:17;;;;;;;27.65;3.90;;;;;;;;;;5027466;28;20412;-59
2023/10/09 11:01:25;;;;;;;33.08;5.00;;;;;;;;;;5017899;28;20040;-59
2023/10/09 11:03:58;;;;;;;26.30;4.07;;;;;;;;;;5021562;28;20052;-58
2023/10/09 11:06:37;;;;;;;28.05;5.07;;;;;;;;;;5018485;28;20042;-59
2023/10/09 11:09:21;;;;;;;;;;;;;;;;;;5020053;28;20429;-58
2023/10/09 11:12:12;;;;;;;27.58;4.22;;;;;;;;;;5018768;28;20300;-57
2023/10/09 11:14:46;;;;;;;30.25;3.95;;;;;;;;;;5022335;28;20049;-58
2023/10/09 11:17:25;;;;;;;28.58;4.57;;;;;;;;;;5027858;28;20560;-58
2023/10/09 11:19:52;;;;;;;26.23;4.40;;;;;;;;;;5025610;28;20038;-57
2023/10/09 11:22:36;;;;;;;27.13;4.55;;;;;;;;;;5025841;28;20045;-57
2023/10/09 11:25:11;;;;;;;37.65;4.32;;;;;;;;;;5025961;28;20029;-59
2023/10/09 11:27:50;;;;;;;30.27;4.30;;;;;;;;;;5025238;28;20043;-59
2023/10/09 11:30:26;;;;;;;26.48;4.55;;;;;;;;;;5026430;28;20052;-59
2023/10/09 11:33:04;;;;;;;29.65;4.47;;;;;;;;;;5021816;28;20040;-59
2023/10/09 11:35:34;;;;;;;24.07;4.10;;;;;;;;;;5024139;28;20052;-60
2023/10/09 11:38:20;;;;;;;24.70;4.32;;;;;;;;;;5023967;28;20297;-60
2023/10/09 11:43:16;;;;;;;29.45;4.88;;;;;;;;;;5025442;28;20044;-59
2023/10/09 11:45:54;;;;;;;29.83;4.78;;;;;;;;;;5014657;28;20060;-59
2023/10/09 11:48:33;;;;;;;27.17;4.80;;;;;;;;;;5019733;28;20042;-59
2023/10/09 11:55:54;;;;;;;37.00;4.63;;;;;;;;;;5026626;28;20049;-59
2023/10/09 11:58:24;;;;;;;24.48;4.47;;;;;;;;;;5021174;28;20038;-59
2023/10/09 12:01:04;;;;;;;27.50;4.50;;;;;;;;;;5021183;28;20045;-59
2023/10/09 12:03:32;;;;;;;28.42;4.40;;;;;;;;;;5020082;28;20050;-59
2023/10/09 12:06:12;;;;;;;28.48;3.47;;;;;;;;;;5023414;28;20029;-58
2023/10/09 12:08:41;;;;;;;40.17;5.05;;;;;;;;;;5017203;28;20095;-59
2023/10/09 12:11:09;;;;;;;25.27;4.18;;;;;;;;;;5021056;28;20080;-59
2023/10/09 12:13:38;;;;;;;36.45;4.97;;;;;;;;;;5026763;28;20573;-59
2023/10/09 12:16:08;;;;;;;33.53;4.68;;;;;;;;;;5025150;28;20519;-59
2023/10/09 12:18:39;;;;;;;26.70;4.22;;;;;;;;;;5025437;28;20038;-59
2023/10/09 12:21:06;;;;;;;33.90;5.22;;;;;;;;;;5023484;28;20052;-59
2023/10/09 12:23:40;;;;;;;23.35;3.60;;;;;;;;;;5025869;28;20044;-59
2023/10/09 12:26:14;;;;;;;28.40;4.75;;;;;;;;;;5025296;28;20037;-60
2023/10/09 12:28:49;;;;;;;28.80;4.88;;;;;;;;;;5024317;28;20026;-60
2023/10/09 12:31:19;;;;;;;25.15;5.10;;;;;;;;;;5024761;28;20033;-60
2023/10/09 12:33:47;;;;;;;22.20;3.90;;;;;;;;;;5024657;28;20101;-59
2023/10/09 12:36:20;;;;;;;23.85;4.38;;;;;;;;;;5028191;28;20493;-59
2023/10/09 12:38:52;;;;;;;23.20;4.13;;;;;;;;;;5023761;28;20021;-59
2023/10/09 12:41:28;;;;;;;28.33;4.03;;;;;;;;;;5024887;28;20049;-59
2023/10/09 12:43:58;;;;;;;28.35;4.38;;;;;;;;;;5028454;28;20032;-58
2023/10/09 12:46:25;;;;;;;30.90;5.07;;;;;;;;;;5027536;28;20535;-58
2023/10/09 12:48:54;;;;;;;21.98;3.90;;;;;;;;;;5029986;28;20033;-58
2023/10/09 12:51:25;;;;;;;27.27;4.05;;;;;;;;;;5023898;28;20041;-58
2023/10/09 12:53:56;;;;;;;20.63;4.03;;;;;;;;;;5030122;28;20041;-58
2023/10/09 12:56:32;;;;;;;29.23;4.57;;;;;;;;;;5022504;28;20040;-59
2023/10/09 12:59:00;;;;;;;24.48;4.75;;;;;;;;;;5023212;28;20030;-58
2023/10/09 13:01:32;;;;;;;32.85;4.25;;;;;;;;;;5024705;28;20049;-58
2023/10/09 13:03:59;;;;;;;29.67;5.28;;;;;;;;;;5026857;28;20037;-58
2023/10/09 13:06:26;;;;;;;31.50;4.82;;;;;;;;;;5022374;28;20038;-59
2023/10/09 13:08:52;;;;;;;26.55;4.05;;;;;;;;;;5028553;28;20056;-59
2023/10/09 13:11:21;;;;;;;28.20;3.95;;;;;;;;;;5028711;28;20033;-59
2023/10/09 13:13:50;;;;;;;27.13;4.17;;;;;;;;;;5027593;28;20041;-59
2023/10/09 13:16:24;;;;;;;24.40;3.97;;;;;;;;;;5029959;28;20296;-59
2023/10/09 13:18:54;;;;;;;29.35;4.97;;;;;;;;;;5029557;28;20056;-59
2023/10/09 13:21:31;;;;;;;25.08;4.63;;;;;;;;;;5028886;28;20635;-58
2023/10/09 13:24:00;;;;;;;31.60;4.72;;;;;;;;;;5025848;28;20401;-58
2023/10/09 13:26:29;;;;;;;27.05;4.15;;;;;;;;;;5028879;28;20613;-60
2023/10/09 13:28:57;;;;;;;26.65;4.75;;;;;;;;;;5028118;28;20504;-60
2023/10/09 13:31:25;;;;;;;27.10;5.20;;;;;;;;;;5024963;28;20031;-60
2023/10/09 13:33:56;;;;;;;25.90;4.70;;;;;;;;;;5025855;28;20533;-60
2023/10/09 13:36:32;;;;;;;25.80;4.13;;;;;;;;;;5028822;28;20041;-58
2023/10/09 13:41:58;;;;;;;27.10;4.25;;;;;;;;;;5025857;28;20045;-58
2023/10/09 13:44:26;;;;;;;28.33;5.20;;;;;;;;;;5028367;28;20057;-58
2023/10/09 13:47:00;;;;;;;25.70;4.63;;;;;;;;;;5028319;28;20041;-58
2023/10/09 13:49:31;;;;;;;34.80;4.88;;;;;;;;;;5022538;28;20046;-58
2023/10/09 13:52:02;;;;;;;34.70;4.95;;;;;;;;;;5024247;28;20265;-59
2023/10/09 13:57:04;;;;;;;21.10;4.15;;;;;;;;;;5026961;28;20044;-59
2023/10/09 13:59:31;;;;;;;27.58;4.38;;;;;;;;;;5028678;28;20034;-59
2023/10/09 14:01:59;;;;;;;26.75;4.50;;;;;;;;;;5021867;28;20034;-59
2023/10/09 14:04:28;;;;;;;22.87;5.43;;;;;;;;;;5023446;28;20041;-59
2023/10/09 14:06:58;;;;;;;27.75;4.80;;;;;;;;;;5023347;28;20033;-59
2023/10/09 14:09:32;;;;;;;22.98;4.15;;;;;;;;;;5028111;28;20033;-59
2023/10/09 14:12:06;;;;;;;23.67;4.80;;;;;;;;;;5028500;28;20064;-59
2023/10/09 14:14:53;;;;;;;23.27;4.78;;;;;;;;;;5029012;28;20044;-59
2023/10/09 14:17:25;;;;;;;28.70;4.60;;;;;;;;;;5026716;28;20037;-58
2023/10/09 14:19:52;;;;;;;28.17;5.35;;;;;;;;;;5027402;28;20052;-59
2023/10/09 14:22:26;;;;;;;28.17;4.82;;;;;;;;;;5028056;28;20034;-58
2023/10/09 14:24:56;;;;;;;28.17;4.38;;;;;;;;;;5025520;28;20040;-59
2023/10/09 14:27:29;;;;;;;29.77;4.32;;;;;;;;;;5027570;28;20025;-59
2023/10/09 14:29:58;;;;;;;31.48;4.93;;;;;;;;;;5026925;28;20041;-58
2023/10/09 14:32:43;;;;;;;27.42;5.32;;;;;;;;;;5022440;28;20050;-60
2023/10/09 14:35:13;;;;;;;29.83;5.45;;;;;;;;;;5024745;28;20049;-58
2023/10/09 14:37:40;;;;;;;30.25;6.45;;;;;;;;;;5027876;28;20044;-57
2023/10/09 14:40:12;;;;;;;29.45;5.38;;;;;;;;;;5026508;28;20022;-59
2023/10/09 14:42:45;;;;;;;21.92;4.38;;;;;;;;;;5027558;28;20527;-59
2023/10/09 14:45:15;;;;;;;31.98;5.38;;;;;;;;;;5026105;28;20054;-58
2023/10/09 14:47:42;;;;;;;28.75;4.82;;;;;;;;;;5028002;28;20049;-59
2023/10/09 14:50:09;;;;;;;24.35;5.10;;;;;;;;;;5022474;28;20382;-60
2023/10/09 14:52:38;;;;;;;31.58;5.25;;;;;;;;;;5023117;28;20429;-59
2023/10/09 14:55:09;;;;;;;27.73;4.90;;;;;;;;;;5026493;28;20572;-58
2023/10/09 14:57:36;;;;;;;35.10;5.10;;;;;;;;;;5023147;28;20532;-57
2023/10/09 15:00:13;;;;;;;33.08;5.55;;;;;;;;;;5034561;28;20037;-57
2023/10/09 15:02:39;;;;;;;26.08;4.97;;;;;;;;;;5022112;28;20421;-56
2023/10/09 15:05:10;;;;;;;26.45;5.03;;;;;;;;;;5025536;28;20053;-56
2023/10/09 15:07:38;;;;;;;29.48;5.22;;;;;;;;;;5027458;28;20029;-57
2023/10/09 15:10:05;;;;;;;30.50;4.90;;;;;;;;;;5024761;28;20037;-56
2023/10/09 15:12:31;;;;;;;24.52;5.03;;;;;;;;;;5026030;28;20041;-56
2023/10/09 15:14:57;;;;;;;26.30;6.18;;;;;;;;;;5026381;28;20060;-56
2023/10/09 15:17:24;;;;;;;20.52;4.88;;;;;;;;;;5029846;28;20043;-56
2023/10/09 15:19:56;;;;;;;31.42;5.28;;;;;;;;;;5024702;28;20033;-56
2023/10/09 15:22:22;;;;;;;28.90;5.60;;;;;;;;;;5027260;28;20037;-57
2023/10/09 15:24:48;;;;;;;22.33;4.47;;;;;;;;;;5024670;28;20049;-57
2023/10/09 15:27:15;;;;;;;24.30;5.75;;;;;;;;;;5026303;28;20041;-57
2023/10/09 15:29:44;;;;;;;36.53;6.78;;;;;;;;;;5025133;28;20072;-57
2023/10/09 15:32:22;;;;;;;;;;;;;;;;;;5024079;28;20033;-57
2023/10/09 15:34:48;;;;;;;30.27;4.80;;;;;;;;;;5026687;28;19924;-57
2023/10/09 15:37:14;;;;;;;26.55;5.43;;;;;;;;;;5023652;28;20044;-57
2023/10/09 15:39:42;;;;;;;30.27;4.97;;;;;;;;;;5026336;28;20045;-57
2023/10/09 15:42:08;;;;;;;34.10;5.47;;;;;;;;;;5026431;28;20048;-56
2023/10/09 15:44:36;;;;;;;28.63;5.80;;;;;;;;;;5025702;28;20052;-57
2023/10/09 15:47:03;;;;;;;25.67;5.20;;;;;;;;;;5025756;28;20057;-57
2023/10/09 15:49:33;;;;;;;36.30;6.95;;;;;;;;;;5023542;28;20057;-57
2023/10/09 15:52:03;;;;;;;32.10;5.38;;;;;;;;;;5021886;28;20045;-58
2023/10/09 15:54:29;;;;;;;29.20;5.57;;;;;;;;;;5022945;28;20053;-57
2023/10/09 15:56:56;;;;;;;30.40;5.25;;;;;;;;;;5024271;28;20057;-57
2023/10/09 15:59:25;;;;;;;34.92;5.25;;;;;;;;;;5020670;28;20026;-57
2023/10/09 16:01:51;;;;;;;;;;;;;;;;;;5022329;28;20045;-60
2023/10/09 16:04:17;;;;;;;27.25;5.18;;;;;;;;;;5025561;28;19928;-57
2023/10/09 16:06:43;;;;;;;29.17;4.75;;;;;;;;;;5026646;28;20060;-57
2023/10/09 16:09:15;;;;;;;30.35;5.15;;;;;;;;;;5025272;28;20046;-58
2023/10/09 16:11:41;;;;;;;32.33;4.80;;;;;;;;;;5027259;28;20064;-58
2023/10/09 16:14:09;;;;;;;40.13;5.63;;;;;;;;;;5024257;28;20080;-58
2023/10/09 16:16:41;;;;;;;28.83;5.07;;;;;;;;;;5025465;28;20045;-57
2023/10/09 16:19:11;;;;;;;33.55;7.03;;;;;;;;;;5024305;28;20098;-58
2023/10/09 16:21:38;;;;;;;23.85;4.93;;;;;;;;;;5026189;28;20040;-58
2023/10/09 16:24:06;;;;;;;23.45;4.95;;;;;;;;;;5025168;28;20409;-59
2023/10/09 16:26:45;;;;;;;29.65;5.50;;;;;;;;;;5024602;28;20394;-59
2023/10/09 16:29:11;;;;;;;33.67;5.10;;;;;;;;;;5026038;28;20570;-59
2023/10/09 16:31:38;;;;;;;31.10;5.82;;;;;;;;;;5025552;28;20044;-59
2023/10/09 16:34:06;;;;;;;30.15;5.38;;;;;;;;;;5025299;28;20045;-59
2023/10/09 16:36:36;;;;;;;27.10;5.20;;;;;;;;;;5020985;28;20040;-59
2023/10/09 16:39:18;;;;;;;26.20;4.70;;;;;;;;;;5018060;28;20025;-58
2023/10/09 16:41:47;;;;;;;33.40;4.68;;;;;;;;;;5025860;28;20049;-59
2023/10/09 16:44:16;;;;;;;32.42;5.95;;;;;;;;;;5020803;28;20029;-59
2023/10/09 16:46:44;;;;;;;;;;;;;;;;;;5018416;28;20052;-60
2023/10/09 16:49:13;;;;;;;25.75;5.68;;;;;;;;;;5020835;28;19917;-60
2023/10/09 16:51:42;;;;;;;24.00;4.72;;;;;;;;;;5026233;28;20045;-59
2023/10/09 16:54:17;;;;;;;26.05;5.43;;;;;;;;;;5021808;28;20064;-60
2023/10/09 16:56:44;;;;;;;31.63;4.60;;;;;;;;;;5029906;28;20049;-59
2023/10/09 16:59:14;;;;;;;28.30;4.60;;;;;;;;;;5024202;28;20045;-59
2023/10/09 17:01:41;;;;;;;34.25;4.90;;;;;;;;;;5025325;28;20129;-59
2023/10/09 17:04:11;;;;;;;23.65;4.25;;;;;;;;;;5023369;28;20063;-59
2023/10/09 17:06:38;;;;;;;31.02;4.90;;;;;;;;;;5026883;28;20037;-60
2023/10/09 17:09:10;;;;;;;39.88;5.28;;;;;;;;;;5023037;28;20057;-59
2023/10/09 17:11:36;;;;;;;31.05;5.15;;;;;;;;;;5024971;28;20041;-59
2023/10/09 17:14:05;;;;;;;35.67;6.97;;;;;;;;;;5022240;28;20044;-60
2023/10/09 17:16:31;;;;;;;34.85;6.50;;;;;;;;;;5025502;28;20049;-59
2023/10/09 17:19:00;;;;;;;25.48;4.57;;;;;;;;;;5023888;28;20033;-60
2023/10/09 17:21:27;;;;;;;32.33;7.05;;;;;;;;;;5021069;28;20045;-59
2023/10/09 17:23:53;;;;;;;33.58;5.28;;;;;;;;;;5022554;28;20458;-59
2023/10/09 17:26:22;;;;;;;35.85;7.03;;;;;;;;;;5023951;28;20041;-59